sensor_id;sensor_type;location;lat;lon;timestamp;P1;durP1;ratioP1;P2;durP2;ratioP2
52072;SDS011;38074;51.232;6.826;2023-03-24T00:00:36;0.82;;;0.20;;
52072;SDS011;38074;51.232;6.826;2023-03-24T00:07:52;1.63;;;0.20;;
52072;SDS011;38074;51.232;6.826;2023-03-24T00:15:12;0.20;;;0.10;;
52072;SDS011;38074;51.232;6.826;2023-03-24T00:22:29;0.73;;;0.15;;
52072;SDS011;38074;51.232;6.826;2023-03-24T00:29:45;0.27;;;0.20;;
52072;SDS011;38074;51.232;6.826;2023-03-24T00:37:00;0.50;;;0.20;;
52072;SDS011;38074;51.232;6.826;2023-03-24T00:44:16;0.40;;;0.30;;
52072;SDS011;38074;51.232;6.826;2023-03-24T00:51:40;0.30;;;0.20;;
52072;SDS011;38074;51.232;6.826;2023-03-24T00:58:57;1.75;;;0.30;;
52072;SDS011;38074;51.232;6.826;2023-03-24T01:06:12;1.07;;;0.40;;
52072;SDS011;38074;51.232;6.826;2023-03-24T01:13:28;1.70;;;0.30;;
52072;SDS011;38074;51.232;6.826;2023-03-24T01:20:44;0.90;;;0.20;;
52072;SDS011;38074;51.232;6.826;2023-03-24T01:28:03;0.30;;;0.10;;
52072;SDS011;38074;51.232;6.826;2023-03-24T01:35:20;0.27;;;0.23;;
52072;SDS011;38074;51.232;6.826;2023-03-24T01:42:36;0.67;;;0.20;;
52072;SDS011;38074;51.232;6.826;2023-03-24T01:49:57;0.63;;;0.10;;
52072;SDS011;38074;51.232;6.826;2023-03-24T01:57:19;1.10;;;0.20;;
52072;SDS011;38074;51.232;6.826;2023-03-24T02:04:40;1.02;;;0.30;;
52072;SDS011;38074;51.232;6.826;2023-03-24T02:11:59;0.22;;;0.10;;
52072;SDS011;38074;51.232;6.826;2023-03-24T02:50:02;0.35;;;0.15;;
52072;SDS011;38074;51.232;6.826;2023-03-24T03:04:59;0.50;;;0.20;;
52072;SDS011;38074;51.232;6.826;2023-03-24T03:12:20;0.55;;;0.20;;
52072;SDS011;38074;51.232;6.826;2023-03-24T03:19:49;0.30;;;0.10;;
52072;SDS011;38074;51.232;6.826;2023-03-24T03:27:15;0.43;;;0.20;;
52072;SDS011;38074;51.232;6.826;2023-03-24T03:41:56;0.30;;;0.20;;
52072;SDS011;38074;51.232;6.826;2023-03-24T03:49:12;0.50;;;0.20;;
52072;SDS011;38074;51.232;6.826;2023-03-24T03:56:28;0.47;;;0.20;;
52072;SDS011;38074;51.232;6.826;2023-03-24T04:03:51;0.73;;;0.20;;
52072;SDS011;38074;51.232;6.826;2023-03-24T04:11:35;0.60;;;0.20;;
52072;SDS011;38074;51.232;6.826;2023-03-24T04:26:52;0.32;;;0.20;;
52072;SDS011;38074;51.232;6.826;2023-03-24T04:34:19;0.82;;;0.30;;
52072;SDS011;38074;51.232;6.826;2023-03-24T04:41:40;0.30;;;0.20;;
52072;SDS011;38074;51.232;6.826;2023-03-24T04:48:57;0.30;;;0.20;;
52072;SDS011;38074;51.232;6.826;2023-03-24T04:56:29;0.40;;;0.15;;
52072;SDS011;38074;51.232;6.826;2023-03-24T05:04:05;1.02;;;0.30;;
52072;SDS011;38074;51.232;6.826;2023-03-24T05:11:20;0.50;;;0.15;;
52072;SDS011;38074;51.232;6.826;2023-03-24T05:18:36;0.60;;;0.20;;
52072;SDS011;38074;51.232;6.826;2023-03-24T05:25:51;0.33;;;0.20;;
52072;SDS011;38074;51.232;6.826;2023-03-24T05:33:08;0.40;;;0.20;;
52072;SDS011;38074;51.232;6.826;2023-03-24T05:40:23;0.20;;;0.20;;
52072;SDS011;38074;51.232;6.826;2023-03-24T05:47:39;0.57;;;0.28;;
52072;SDS011;38074;51.232;6.826;2023-03-24T05:54:54;0.23;;;0.10;;
52072;SDS011;38074;51.232;6.826;2023-03-24T06:02:10;0.10;;;0.10;;
52072;SDS011;38074;51.232;6.826;2023-03-24T06:09:26;1.10;;;0.28;;
52072;SDS011;38074;51.232;6.826;2023-03-24T06:23:59;0.20;;;0.10;;
52072;SDS011;38074;51.232;6.826;2023-03-24T06:31:14;1.55;;;0.30;;
52072;SDS011;38074;51.232;6.826;2023-03-24T06:38:32;17.70;;;4.35;;
52072;SDS011;38074;51.232;6.826;2023-03-24T06:45:47;13.37;;;2.60;;
52072;SDS011;38074;51.232;6.826;2023-03-24T06:53:03;11.67;;;3.00;;
52072;SDS011;38074;51.232;6.826;2023-03-24T07:00:19;9.60;;;2.50;;
52072;SDS011;38074;51.232;6.826;2023-03-24T07:07:35;7.70;;;1.58;;
52072;SDS011;38074;51.232;6.826;2023-03-24T07:14:51;9.63;;;1.92;;
52072;SDS011;38074;51.232;6.826;2023-03-24T07:22:06;6.57;;;1.63;;
52072;SDS011;38074;51.232;6.826;2023-03-24T07:29:22;4.90;;;1.50;;
52072;SDS011;38074;51.232;6.826;2023-03-24T07:36:37;11.40;;;1.87;;
52072;SDS011;38074;51.232;6.826;2023-03-24T07:43:53;9.90;;;1.47;;
52072;SDS011;38074;51.232;6.826;2023-03-24T07:51:09;6.38;;;1.50;;
52072;SDS011;38074;51.232;6.826;2023-03-24T07:58:24;7.00;;;1.30;;
52072;SDS011;38074;51.232;6.826;2023-03-24T08:05:40;4.38;;;1.25;;
52072;SDS011;38074;51.232;6.826;2023-03-24T08:12:57;5.55;;;1.10;;
52072;SDS011;38074;51.232;6.826;2023-03-24T08:20:13;7.25;;;1.73;;
52072;SDS011;38074;51.232;6.826;2023-03-24T08:27:29;5.72;;;1.20;;
52072;SDS011;38074;51.232;6.826;2023-03-24T08:34:44;5.60;;;1.30;;
52072;SDS011;38074;51.232;6.826;2023-03-24T08:42:00;3.73;;;1.03;;
52072;SDS011;38074;51.232;6.826;2023-03-24T08:49:16;2.33;;;0.98;;
52072;SDS011;38074;51.232;6.826;2023-03-24T08:56:32;3.03;;;0.88;;
52072;SDS011;38074;51.232;6.826;2023-03-24T09:03:47;3.38;;;0.80;;
52072;SDS011;38074;51.232;6.826;2023-03-24T09:11:03;2.38;;;0.77;;
52072;SDS011;38074;51.232;6.826;2023-03-24T09:18:20;4.90;;;0.70;;
52072;SDS011;38074;51.232;6.826;2023-03-24T09:25:36;2.90;;;0.50;;
52072;SDS011;38074;51.232;6.826;2023-03-24T09:32:51;2.95;;;0.73;;
52072;SDS011;38074;51.232;6.826;2023-03-24T09:40:09;2.63;;;0.40;;
52072;SDS011;38074;51.232;6.826;2023-03-24T09:47:39;1.95;;;0.60;;
52072;SDS011;38074;51.232;6.826;2023-03-24T09:54:58;3.08;;;0.75;;
52072;SDS011;38074;51.232;6.826;2023-03-24T10:02:20;2.63;;;0.50;;
52072;SDS011;38074;51.232;6.826;2023-03-24T10:09:36;1.70;;;0.50;;
52072;SDS011;38074;51.232;6.826;2023-03-24T10:24:26;1.30;;;0.40;;
52072;SDS011;38074;51.232;6.826;2023-03-24T10:31:56;2.92;;;0.40;;
52072;SDS011;38074;51.232;6.826;2023-03-24T10:46:32;2.27;;;0.43;;
52072;SDS011;38074;51.232;6.826;2023-03-24T10:53:50;1.20;;;0.40;;
52072;SDS011;38074;51.232;6.826;2023-03-24T11:01:42;1.10;;;0.35;;
52072;SDS011;38074;51.232;6.826;2023-03-24T11:09:18;1.48;;;0.40;;
52072;SDS011;38074;51.232;6.826;2023-03-24T11:16:36;1.52;;;0.30;;
52072;SDS011;38074;51.232;6.826;2023-03-24T11:24:00;1.42;;;0.40;;
52072;SDS011;38074;51.232;6.826;2023-03-24T11:31:28;1.70;;;0.40;;
52072;SDS011;38074;51.232;6.826;2023-03-24T11:38:45;3.58;;;0.80;;
52072;SDS011;38074;51.232;6.826;2023-03-24T11:46:32;4.13;;;1.10;;
52072;SDS011;38074;51.232;6.826;2023-03-24T11:53:50;4.72;;;1.10;;
52072;SDS011;38074;51.232;6.826;2023-03-24T12:15:52;7.72;;;1.60;;
52072;SDS011;38074;51.232;6.826;2023-03-24T12:23:24;6.13;;;1.63;;
52072;SDS011;38074;51.232;6.826;2023-03-24T12:38:16;5.28;;;1.17;;
52072;SDS011;38074;51.232;6.826;2023-03-24T13:01:37;2.60;;;0.70;;
52072;SDS011;38074;51.232;6.826;2023-03-24T13:09:05;2.25;;;0.77;;
52072;SDS011;38074;51.232;6.826;2023-03-24T13:16:26;3.22;;;0.98;;
52072;SDS011;38074;51.232;6.826;2023-03-24T13:23:59;4.22;;;0.90;;
52072;SDS011;38074;51.232;6.826;2023-03-24T13:31:25;3.75;;;0.60;;
52072;SDS011;38074;51.232;6.826;2023-03-24T13:38:42;2.22;;;0.70;;
52072;SDS011;38074;51.232;6.826;2023-03-24T13:46:04;3.08;;;0.70;;
52072;SDS011;38074;51.232;6.826;2023-03-24T13:53:36;5.05;;;0.88;;
52072;SDS011;38074;51.232;6.826;2023-03-24T14:09:18;2.67;;;0.73;;
52072;SDS011;38074;51.232;6.826;2023-03-24T14:16:25;1.85;;;0.40;;
52072;SDS011;38074;51.232;6.826;2023-03-24T14:23:48;2.25;;;0.50;;
52072;SDS011;38074;51.232;6.826;2023-03-24T14:31:07;2.33;;;0.90;;
52072;SDS011;38074;51.232;6.826;2023-03-24T14:38:33;3.53;;;0.60;;
52072;SDS011;38074;51.232;6.826;2023-03-24T14:53:17;3.13;;;0.68;;
52072;SDS011;38074;51.232;6.826;2023-03-24T15:00:47;2.75;;;0.40;;
52072;SDS011;38074;51.232;6.826;2023-03-24T15:08:16;2.63;;;0.47;;
52072;SDS011;38074;51.232;6.826;2023-03-24T15:15:35;2.08;;;0.47;;
52072;SDS011;38074;51.232;6.826;2023-03-24T15:22:51;1.60;;;0.40;;
52072;SDS011;38074;51.232;6.826;2023-03-24T15:30:12;2.03;;;0.40;;
52072;SDS011;38074;51.232;6.826;2023-03-24T15:37:30;2.13;;;0.40;;
52072;SDS011;38074;51.232;6.826;2023-03-24T15:44:51;1.48;;;0.40;;
52072;SDS011;38074;51.232;6.826;2023-03-24T16:07:04;2.10;;;0.30;;
52072;SDS011;38074;51.232;6.826;2023-03-24T16:14:21;6.40;;;0.53;;
52072;SDS011;38074;51.232;6.826;2023-03-24T16:21:44;3.17;;;0.55;;
52072;SDS011;38074;51.232;6.826;2023-03-24T16:29:13;3.08;;;0.40;;
52072;SDS011;38074;51.232;6.826;2023-03-24T16:36:36;2.17;;;0.50;;
52072;SDS011;38074;51.232;6.826;2023-03-24T16:43:52;3.88;;;0.40;;
52072;SDS011;38074;51.232;6.826;2023-03-24T16:51:14;2.80;;;0.52;;
52072;SDS011;38074;51.232;6.826;2023-03-24T16:58:30;2.60;;;0.50;;
52072;SDS011;38074;51.232;6.826;2023-03-24T17:05:47;3.13;;;0.53;;
52072;SDS011;38074;51.232;6.826;2023-03-24T17:20:19;3.73;;;0.43;;
52072;SDS011;38074;51.232;6.826;2023-03-24T17:27:35;6.45;;;0.70;;
52072;SDS011;38074;51.232;6.826;2023-03-24T17:34:52;7.10;;;0.68;;
52072;SDS011;38074;51.232;6.826;2023-03-24T17:42:07;8.23;;;1.10;;
52072;SDS011;38074;51.232;6.826;2023-03-24T17:49:23;9.73;;;1.00;;
52072;SDS011;38074;51.232;6.826;2023-03-24T17:56:38;8.80;;;0.70;;
52072;SDS011;38074;51.232;6.826;2023-03-24T18:03:55;6.28;;;0.85;;
52072;SDS011;38074;51.232;6.826;2023-03-24T18:11:14;6.23;;;0.73;;
52072;SDS011;38074;51.232;6.826;2023-03-24T18:18:29;9.45;;;1.00;;
52072;SDS011;38074;51.232;6.826;2023-03-24T18:25:45;5.20;;;0.80;;
52072;SDS011;38074;51.232;6.826;2023-03-24T18:33:00;5.32;;;0.70;;
52072;SDS011;38074;51.232;6.826;2023-03-24T18:40:16;9.45;;;1.30;;
52072;SDS011;38074;51.232;6.826;2023-03-24T18:47:32;17.93;;;1.47;;
52072;SDS011;38074;51.232;6.826;2023-03-24T18:54:47;9.68;;;1.05;;
52072;SDS011;38074;51.232;6.826;2023-03-24T19:02:03;10.60;;;1.00;;
52072;SDS011;38074;51.232;6.826;2023-03-24T19:09:19;4.88;;;0.65;;
52072;SDS011;38074;51.232;6.826;2023-03-24T19:23:51;7.03;;;0.73;;
52072;SDS011;38074;51.232;6.826;2023-03-24T19:31:08;5.15;;;0.85;;
52072;SDS011;38074;51.232;6.826;2023-03-24T19:38:26;6.25;;;0.80;;
52072;SDS011;38074;51.232;6.826;2023-03-24T19:45:47;5.07;;;0.67;;
52072;SDS011;38074;51.232;6.826;2023-03-24T19:53:12;3.42;;;0.63;;
52072;SDS011;38074;51.232;6.826;2023-03-24T20:00:27;5.33;;;0.77;;
52072;SDS011;38074;51.232;6.826;2023-03-24T20:07:43;3.17;;;0.60;;
52072;SDS011;38074;51.232;6.826;2023-03-24T20:14:58;5.03;;;0.70;;
52072;SDS011;38074;51.232;6.826;2023-03-24T20:22:14;5.90;;;0.98;;
52072;SDS011;38074;51.232;6.826;2023-03-24T20:29:30;6.30;;;1.15;;
52072;SDS011;38074;51.232;6.826;2023-03-24T20:36:45;3.77;;;0.63;;
52072;SDS011;38074;51.232;6.826;2023-03-24T20:44:01;8.50;;;1.17;;
52072;SDS011;38074;51.232;6.826;2023-03-24T20:51:17;4.47;;;0.60;;
52072;SDS011;38074;51.232;6.826;2023-03-24T20:58:33;3.63;;;0.67;;
52072;SDS011;38074;51.232;6.826;2023-03-24T21:05:49;5.18;;;0.80;;
52072;SDS011;38074;51.232;6.826;2023-03-24T21:13:05;3.67;;;1.05;;
52072;SDS011;38074;51.232;6.826;2023-03-24T21:20:21;4.97;;;1.02;;
52072;SDS011;38074;51.232;6.826;2023-03-24T21:27:40;7.55;;;0.75;;
52072;SDS011;38074;51.232;6.826;2023-03-24T21:34:56;2.97;;;0.60;;
52072;SDS011;38074;51.232;6.826;2023-03-24T21:42:12;5.63;;;0.60;;
52072;SDS011;38074;51.232;6.826;2023-03-24T21:49:29;4.60;;;0.70;;
52072;SDS011;38074;51.232;6.826;2023-03-24T21:56:44;2.60;;;0.40;;
52072;SDS011;38074;51.232;6.826;2023-03-24T22:04:01;2.20;;;0.60;;
52072;SDS011;38074;51.232;6.826;2023-03-24T22:11:18;4.07;;;0.60;;
52072;SDS011;38074;51.232;6.826;2023-03-24T22:18:34;1.80;;;0.40;;
52072;SDS011;38074;51.232;6.826;2023-03-24T22:25:49;3.03;;;0.60;;
52072;SDS011;38074;51.232;6.826;2023-03-24T22:33:08;2.13;;;0.50;;
52072;SDS011;38074;51.232;6.826;2023-03-24T22:40:23;1.63;;;0.30;;
52072;SDS011;38074;51.232;6.826;2023-03-24T22:47:39;3.30;;;0.47;;
52072;SDS011;38074;51.232;6.826;2023-03-24T22:54:55;1.20;;;0.30;;
52072;SDS011;38074;51.232;6.826;2023-03-24T23:02:10;1.37;;;0.30;;
52072;SDS011;38074;51.232;6.826;2023-03-24T23:09:26;1.97;;;0.40;;
52072;SDS011;38074;51.232;6.826;2023-03-24T23:23:59;2.22;;;0.45;;
52072;SDS011;38074;51.232;6.826;2023-03-24T23:31:16;1.25;;;0.25;;
52072;SDS011;38074;51.232;6.826;2023-03-24T23:38:34;0.60;;;0.20;;
52072;SDS011;38074;51.232;6.826;2023-03-24T23:45:53;1.77;;;0.30;;
52072;SDS011;38074;51.232;6.826;2023-03-24T23:53:09;1.40;;;0.38;;
